sensor_id;sensor_type;location;lat;lon;timestamp;P1;durP1;ratioP1;P2;durP2;ratioP2
63203;SDS011;49297;43.210;27.914;2023-09-19T00:01:08;8.15;;;7.30;;
63203;SDS011;49297;43.210;27.914;2023-09-19T00:03:34;9.25;;;7.97;;
63203;SDS011;49297;43.210;27.914;2023-09-19T00:06:04;10.48;;;7.82;;
63203;SDS011;49297;43.210;27.914;2023-09-19T00:08:33;7.93;;;6.53;;
63203;SDS011;49297;43.210;27.914;2023-09-19T00:10:59;8.15;;;7.43;;
63203;SDS011;49297;43.210;27.914;2023-09-19T00:13:31;11.18;;;6.93;;
63203;SDS011;49297;43.210;27.914;2023-09-19T00:15:58;9.95;;;7.05;;
63203;SDS011;49297;43.210;27.914;2023-09-19T00:18:25;15.60;;;7.47;;
63203;SDS011;49297;43.210;27.914;2023-09-19T00:20:57;10.60;;;7.63;;
63203;SDS011;49297;43.210;27.914;2023-09-19T00:23:24;10.95;;;6.53;;
63203;SDS011;49297;43.210;27.914;2023-09-19T00:25:50;7.65;;;6.10;;
63203;SDS011;49297;43.210;27.914;2023-09-19T00:28:16;9.38;;;6.40;;
63203;SDS011;49297;43.210;27.914;2023-09-19T00:30:45;11.68;;;7.15;;
63203;SDS011;49297;43.210;27.914;2023-09-19T00:33:20;10.48;;;6.60;;
63203;SDS011;49297;43.210;27.914;2023-09-19T00:35:50;12.27;;;7.87;;
63203;SDS011;49297;43.210;27.914;2023-09-19T00:38:18;9.52;;;6.68;;
63203;SDS011;49297;43.210;27.914;2023-09-19T00:40:47;9.65;;;7.63;;
63203;SDS011;49297;43.210;27.914;2023-09-19T00:43:14;10.20;;;6.95;;
63203;SDS011;49297;43.210;27.914;2023-09-19T00:45:44;14.68;;;8.10;;
63203;SDS011;49297;43.210;27.914;2023-09-19T00:48:13;8.95;;;6.80;;
63203;SDS011;49297;43.210;27.914;2023-09-19T00:50:43;8.23;;;7.07;;
63203;SDS011;49297;43.210;27.914;2023-09-19T00:53:13;14.40;;;7.60;;
63203;SDS011;49297;43.210;27.914;2023-09-19T00:55:41;12.02;;;8.35;;
63203;SDS011;49297;43.210;27.914;2023-09-19T00:58:08;11.77;;;7.35;;
63203;SDS011;49297;43.210;27.914;2023-09-19T01:00:36;14.10;;;7.63;;
63203;SDS011;49297;43.210;27.914;2023-09-19T01:03:02;10.00;;;7.88;;
63203;SDS011;49297;43.210;27.914;2023-09-19T01:05:28;9.93;;;8.10;;
63203;SDS011;49297;43.210;27.914;2023-09-19T01:07:57;12.80;;;8.07;;
63203;SDS011;49297;43.210;27.914;2023-09-19T01:10:22;17.15;;;8.63;;
63203;SDS011;49297;43.210;27.914;2023-09-19T01:12:54;8.18;;;7.38;;
63203;SDS011;49297;43.210;27.914;2023-09-19T01:21:02;10.87;;;7.90;;
63203;SDS011;49297;43.210;27.914;2023-09-19T01:29:39;11.05;;;7.45;;
63203;SDS011;49297;43.210;27.914;2023-09-19T01:32:10;8.88;;;7.25;;
63203;SDS011;49297;43.210;27.914;2023-09-19T01:34:45;10.10;;;7.90;;
63203;SDS011;49297;43.210;27.914;2023-09-19T01:37:16;10.30;;;7.85;;
63203;SDS011;49297;43.210;27.914;2023-09-19T01:39:49;10.45;;;7.68;;
63203;SDS011;49297;43.210;27.914;2023-09-19T01:47:49;8.68;;;7.53;;
63203;SDS011;49297;43.210;27.914;2023-09-19T01:50:29;7.80;;;7.00;;
63203;SDS011;49297;43.210;27.914;2023-09-19T01:56:07;8.05;;;7.35;;
63203;SDS011;49297;43.210;27.914;2023-09-19T01:58:48;9.23;;;6.95;;
63203;SDS011;49297;43.210;27.914;2023-09-19T02:01:17;8.65;;;7.40;;
63203;SDS011;49297;43.210;27.914;2023-09-19T02:03:48;16.90;;;7.37;;
63203;SDS011;49297;43.210;27.914;2023-09-19T02:06:15;9.70;;;7.57;;
63203;SDS011;49297;43.210;27.914;2023-09-19T02:08:55;10.20;;;7.47;;
63203;SDS011;49297;43.210;27.914;2023-09-19T02:11:21;11.52;;;7.93;;
63203;SDS011;49297;43.210;27.914;2023-09-19T02:13:47;9.80;;;7.75;;
63203;SDS011;49297;43.210;27.914;2023-09-19T02:16:13;10.13;;;8.95;;
63203;SDS011;49297;43.210;27.914;2023-09-19T02:18:42;9.75;;;8.75;;
63203;SDS011;49297;43.210;27.914;2023-09-19T02:21:07;10.23;;;8.77;;
63203;SDS011;49297;43.210;27.914;2023-09-19T02:23:35;8.38;;;7.43;;
63203;SDS011;49297;43.210;27.914;2023-09-19T02:26:01;9.30;;;8.03;;
63203;SDS011;49297;43.210;27.914;2023-09-19T02:28:26;10.20;;;8.57;;
63203;SDS011;49297;43.210;27.914;2023-09-19T02:30:57;10.43;;;8.45;;
63203;SDS011;49297;43.210;27.914;2023-09-19T02:33:23;10.93;;;8.85;;
63203;SDS011;49297;43.210;27.914;2023-09-19T02:35:49;12.02;;;8.73;;
63203;SDS011;49297;43.210;27.914;2023-09-19T02:38:19;12.25;;;8.57;;
63203;SDS011;49297;43.210;27.914;2023-09-19T02:40:50;10.50;;;7.97;;
63203;SDS011;49297;43.210;27.914;2023-09-19T02:43:16;10.48;;;8.30;;
63203;SDS011;49297;43.210;27.914;2023-09-19T02:45:42;11.90;;;8.63;;
63203;SDS011;49297;43.210;27.914;2023-09-19T02:48:08;10.63;;;9.63;;
63203;SDS011;49297;43.210;27.914;2023-09-19T02:50:34;10.45;;;9.43;;
63203;SDS011;49297;43.210;27.914;2023-09-19T02:53:00;9.65;;;8.73;;
63203;SDS011;49297;43.210;27.914;2023-09-19T02:55:26;9.97;;;9.00;;
63203;SDS011;49297;43.210;27.914;2023-09-19T02:57:53;10.45;;;9.55;;
63203;SDS011;49297;43.210;27.914;2023-09-19T03:00:22;10.87;;;9.67;;
63203;SDS011;49297;43.210;27.914;2023-09-19T03:02:55;10.43;;;8.93;;
63203;SDS011;49297;43.210;27.914;2023-09-19T03:05:22;11.57;;;10.45;;
63203;SDS011;49297;43.210;27.914;2023-09-19T03:07:50;10.65;;;9.63;;
63203;SDS011;49297;43.210;27.914;2023-09-19T03:10:18;12.68;;;9.95;;
63203;SDS011;49297;43.210;27.914;2023-09-19T03:12:48;10.93;;;9.33;;
63203;SDS011;49297;43.210;27.914;2023-09-19T03:15:15;16.25;;;10.82;;
63203;SDS011;49297;43.210;27.914;2023-09-19T03:17:44;10.60;;;9.48;;
63203;SDS011;49297;43.210;27.914;2023-09-19T03:20:11;11.88;;;8.93;;
63203;SDS011;49297;43.210;27.914;2023-09-19T03:22:38;16.02;;;9.77;;
63203;SDS011;49297;43.210;27.914;2023-09-19T03:25:05;11.27;;;9.20;;
63203;SDS011;49297;43.210;27.914;2023-09-19T03:27:36;14.63;;;9.38;;
63203;SDS011;49297;43.210;27.914;2023-09-19T03:30:03;11.20;;;10.10;;
63203;SDS011;49297;43.210;27.914;2023-09-19T03:32:37;12.82;;;10.13;;
63203;SDS011;49297;43.210;27.914;2023-09-19T03:35:08;14.40;;;10.70;;
63203;SDS011;49297;43.210;27.914;2023-09-19T03:37:43;14.93;;;10.45;;
63203;SDS011;49297;43.210;27.914;2023-09-19T03:40:09;14.75;;;11.27;;
63203;SDS011;49297;43.210;27.914;2023-09-19T03:42:39;14.13;;;11.70;;
63203;SDS011;49297;43.210;27.914;2023-09-19T03:45:06;14.87;;;11.77;;
63203;SDS011;49297;43.210;27.914;2023-09-19T03:47:36;13.93;;;12.45;;
63203;SDS011;49297;43.210;27.914;2023-09-19T03:50:02;20.05;;;12.10;;
63203;SDS011;49297;43.210;27.914;2023-09-19T03:52:29;13.20;;;11.90;;
63203;SDS011;49297;43.210;27.914;2023-09-19T03:54:54;14.40;;;12.93;;
63203;SDS011;49297;43.210;27.914;2023-09-19T03:57:20;17.05;;;12.98;;
63203;SDS011;49297;43.210;27.914;2023-09-19T03:59:46;14.80;;;13.30;;
63203;SDS011;49297;43.210;27.914;2023-09-19T04:02:12;14.82;;;13.30;;
63203;SDS011;49297;43.210;27.914;2023-09-19T04:04:48;23.80;;;15.07;;
63203;SDS011;49297;43.210;27.914;2023-09-19T04:07:14;20.13;;;13.20;;
63203;SDS011;49297;43.210;27.914;2023-09-19T04:09:40;15.52;;;13.93;;
63203;SDS011;49297;43.210;27.914;2023-09-19T04:12:06;14.80;;;13.20;;
63203;SDS011;49297;43.210;27.914;2023-09-19T04:14:34;16.23;;;13.70;;
63203;SDS011;49297;43.210;27.914;2023-09-19T04:16:59;14.48;;;13.02;;
63203;SDS011;49297;43.210;27.914;2023-09-19T04:19:26;19.33;;;13.67;;
63203;SDS011;49297;43.210;27.914;2023-09-19T04:21:51;17.60;;;13.45;;
63203;SDS011;49297;43.210;27.914;2023-09-19T04:24:17;16.02;;;14.10;;
63203;SDS011;49297;43.210;27.914;2023-09-19T04:26:44;20.52;;;13.68;;
63203;SDS011;49297;43.210;27.914;2023-09-19T04:29:10;22.02;;;14.38;;
63203;SDS011;49297;43.210;27.914;2023-09-19T04:31:36;16.10;;;13.55;;
63203;SDS011;49297;43.210;27.914;2023-09-19T04:34:03;21.85;;;14.27;;
63203;SDS011;49297;43.210;27.914;2023-09-19T04:36:29;20.97;;;15.90;;
63203;SDS011;49297;43.210;27.914;2023-09-19T04:38:55;17.30;;;13.67;;
63203;SDS011;49297;43.210;27.914;2023-09-19T04:41:20;19.52;;;13.13;;
63203;SDS011;49297;43.210;27.914;2023-09-19T04:43:47;17.58;;;12.90;;
63203;SDS011;49297;43.210;27.914;2023-09-19T04:46:15;16.05;;;13.07;;
63203;SDS011;49297;43.210;27.914;2023-09-19T04:48:40;17.63;;;13.60;;
63203;SDS011;49297;43.210;27.914;2023-09-19T04:51:06;22.27;;;14.23;;
63203;SDS011;49297;43.210;27.914;2023-09-19T04:53:32;15.98;;;13.85;;
63203;SDS011;49297;43.210;27.914;2023-09-19T04:55:58;20.93;;;13.80;;
63203;SDS011;49297;43.210;27.914;2023-09-19T04:58:30;15.55;;;13.98;;
63203;SDS011;49297;43.210;27.914;2023-09-19T05:00:56;20.20;;;15.60;;
63203;SDS011;49297;43.210;27.914;2023-09-19T05:03:22;20.58;;;15.52;;
63203;SDS011;49297;43.210;27.914;2023-09-19T05:05:48;18.73;;;16.67;;
63203;SDS011;49297;43.210;27.914;2023-09-19T05:08:14;17.92;;;16.02;;
63203;SDS011;49297;43.210;27.914;2023-09-19T05:10:40;24.48;;;16.85;;
63203;SDS011;49297;43.210;27.914;2023-09-19T05:13:06;20.77;;;15.35;;
63203;SDS011;49297;43.210;27.914;2023-09-19T05:15:35;24.40;;;17.35;;
63203;SDS011;49297;43.210;27.914;2023-09-19T05:18:02;31.00;;;16.70;;
63203;SDS011;49297;43.210;27.914;2023-09-19T05:20:28;19.30;;;17.35;;
63203;SDS011;49297;43.210;27.914;2023-09-19T05:22:58;24.13;;;17.42;;
63203;SDS011;49297;43.210;27.914;2023-09-19T05:25:31;22.10;;;17.08;;
63203;SDS011;49297;43.210;27.914;2023-09-19T05:27:58;18.83;;;16.85;;
63203;SDS011;49297;43.210;27.914;2023-09-19T05:30:25;20.27;;;16.73;;
63203;SDS011;49297;43.210;27.914;2023-09-19T05:32:54;19.85;;;17.98;;
63203;SDS011;49297;43.210;27.914;2023-09-19T05:35:21;21.60;;;18.58;;
63203;SDS011;49297;43.210;27.914;2023-09-19T05:37:48;20.35;;;18.25;;
63203;SDS011;49297;43.210;27.914;2023-09-19T05:40:19;20.40;;;18.50;;
63203;SDS011;49297;43.210;27.914;2023-09-19T05:42:45;22.00;;;17.65;;
63203;SDS011;49297;43.210;27.914;2023-09-19T05:45:14;21.42;;;18.83;;
63203;SDS011;49297;43.210;27.914;2023-09-19T05:47:44;20.08;;;17.42;;
63203;SDS011;49297;43.210;27.914;2023-09-19T05:50:12;19.90;;;17.85;;
63203;SDS011;49297;43.210;27.914;2023-09-19T05:52:40;25.65;;;17.85;;
63203;SDS011;49297;43.210;27.914;2023-09-19T05:55:09;19.35;;;17.35;;
63203;SDS011;49297;43.210;27.914;2023-09-19T05:57:37;17.83;;;16.08;;
63203;SDS011;49297;43.210;27.914;2023-09-19T06:00:09;17.02;;;15.40;;
63203;SDS011;49297;43.210;27.914;2023-09-19T06:02:39;19.60;;;16.33;;
63203;SDS011;49297;43.210;27.914;2023-09-19T06:05:05;17.73;;;15.70;;
63203;SDS011;49297;43.210;27.914;2023-09-19T06:07:32;18.50;;;16.02;;
63203;SDS011;49297;43.210;27.914;2023-09-19T06:10:02;17.55;;;15.52;;
63203;SDS011;49297;43.210;27.914;2023-09-19T06:12:31;18.42;;;16.58;;
63203;SDS011;49297;43.210;27.914;2023-09-19T06:14:59;20.87;;;14.83;;
63203;SDS011;49297;43.210;27.914;2023-09-19T06:17:25;17.98;;;16.23;;
63203;SDS011;49297;43.210;27.914;2023-09-19T06:19:52;16.92;;;14.23;;
63203;SDS011;49297;43.210;27.914;2023-09-19T06:22:18;16.88;;;14.63;;
63203;SDS011;49297;43.210;27.914;2023-09-19T06:24:44;20.38;;;15.48;;
63203;SDS011;49297;43.210;27.914;2023-09-19T06:27:12;15.73;;;14.38;;
63203;SDS011;49297;43.210;27.914;2023-09-19T06:29:38;18.90;;;15.55;;
63203;SDS011;49297;43.210;27.914;2023-09-19T06:32:07;15.57;;;14.18;;
63203;SDS011;49297;43.210;27.914;2023-09-19T06:34:34;16.70;;;15.00;;
63203;SDS011;49297;43.210;27.914;2023-09-19T06:37:00;15.23;;;13.63;;
63203;SDS011;49297;43.210;27.914;2023-09-19T06:39:26;15.63;;;14.20;;
63203;SDS011;49297;43.210;27.914;2023-09-19T06:41:52;18.23;;;13.60;;
63203;SDS011;49297;43.210;27.914;2023-09-19T06:44:20;14.95;;;13.38;;
63203;SDS011;49297;43.210;27.914;2023-09-19T06:46:50;15.65;;;13.70;;
63203;SDS011;49297;43.210;27.914;2023-09-19T06:49:19;14.45;;;12.48;;
63203;SDS011;49297;43.210;27.914;2023-09-19T06:51:45;14.82;;;12.05;;
63203;SDS011;49297;43.210;27.914;2023-09-19T06:54:11;15.47;;;12.63;;
63203;SDS011;49297;43.210;27.914;2023-09-19T06:56:37;18.15;;;11.75;;
63203;SDS011;49297;43.210;27.914;2023-09-19T06:59:02;15.50;;;12.50;;
63203;SDS011;49297;43.210;27.914;2023-09-19T07:01:31;15.02;;;11.65;;
63203;SDS011;49297;43.210;27.914;2023-09-19T07:03:57;19.05;;;11.50;;
63203;SDS011;49297;43.210;27.914;2023-09-19T07:06:23;13.10;;;10.80;;
63203;SDS011;49297;43.210;27.914;2023-09-19T07:08:49;13.38;;;11.98;;
63203;SDS011;49297;43.210;27.914;2023-09-19T07:11:15;11.67;;;9.10;;
63203;SDS011;49297;43.210;27.914;2023-09-19T07:13:42;11.57;;;8.57;;
63203;SDS011;49297;43.210;27.914;2023-09-19T07:16:08;10.18;;;8.15;;
63203;SDS011;49297;43.210;27.914;2023-09-19T07:18:35;10.07;;;8.68;;
63203;SDS011;49297;43.210;27.914;2023-09-19T07:21:02;10.73;;;9.65;;
63203;SDS011;49297;43.210;27.914;2023-09-19T07:23:30;11.07;;;9.60;;
63203;SDS011;49297;43.210;27.914;2023-09-19T07:26:00;12.55;;;8.60;;
63203;SDS011;49297;43.210;27.914;2023-09-19T07:28:26;10.35;;;8.30;;
63203;SDS011;49297;43.210;27.914;2023-09-19T07:30:54;11.43;;;7.57;;
63203;SDS011;49297;43.210;27.914;2023-09-19T07:33:20;7.63;;;6.70;;
63203;SDS011;49297;43.210;27.914;2023-09-19T07:35:46;7.13;;;6.40;;
63203;SDS011;49297;43.210;27.914;2023-09-19T07:38:13;5.97;;;5.23;;
63203;SDS011;49297;43.210;27.914;2023-09-19T07:40:38;4.85;;;4.40;;
63203;SDS011;49297;43.210;27.914;2023-09-19T07:43:04;6.90;;;5.25;;
63203;SDS011;49297;43.210;27.914;2023-09-19T07:45:32;6.23;;;5.17;;
63203;SDS011;49297;43.210;27.914;2023-09-19T07:47:58;9.07;;;5.90;;
63203;SDS011;49297;43.210;27.914;2023-09-19T07:50:26;5.15;;;4.07;;
63203;SDS011;49297;43.210;27.914;2023-09-19T07:52:52;5.13;;;4.60;;
63203;SDS011;49297;43.210;27.914;2023-09-19T07:55:18;6.68;;;4.38;;
63203;SDS011;49297;43.210;27.914;2023-09-19T07:57:50;7.70;;;5.28;;
63203;SDS011;49297;43.210;27.914;2023-09-19T08:00:17;9.15;;;4.93;;
63203;SDS011;49297;43.210;27.914;2023-09-19T08:02:43;9.68;;;5.28;;
63203;SDS011;49297;43.210;27.914;2023-09-19T08:05:09;8.80;;;4.93;;
63203;SDS011;49297;43.210;27.914;2023-09-19T08:07:40;7.63;;;4.70;;
63203;SDS011;49297;43.210;27.914;2023-09-19T08:10:07;5.37;;;4.83;;
63203;SDS011;49297;43.210;27.914;2023-09-19T08:12:38;5.95;;;3.42;;
63203;SDS011;49297;43.210;27.914;2023-09-19T08:15:15;5.82;;;4.75;;
63203;SDS011;49297;43.210;27.914;2023-09-19T08:17:42;3.92;;;3.60;;
63203;SDS011;49297;43.210;27.914;2023-09-19T08:20:08;4.30;;;3.90;;
63203;SDS011;49297;43.210;27.914;2023-09-19T08:22:44;6.85;;;4.72;;
63203;SDS011;49297;43.210;27.914;2023-09-19T08:25:13;4.55;;;3.65;;
63203;SDS011;49297;43.210;27.914;2023-09-19T08:27:41;5.50;;;4.03;;
63203;SDS011;49297;43.210;27.914;2023-09-19T08:30:09;6.03;;;4.32;;
63203;SDS011;49297;43.210;27.914;2023-09-19T08:32:36;4.63;;;3.92;;
63203;SDS011;49297;43.210;27.914;2023-09-19T08:35:02;5.20;;;3.47;;
63203;SDS011;49297;43.210;27.914;2023-09-19T08:37:29;3.88;;;3.58;;
63203;SDS011;49297;43.210;27.914;2023-09-19T08:39:55;4.43;;;3.80;;
63203;SDS011;49297;43.210;27.914;2023-09-19T08:42:21;4.97;;;3.53;;
63203;SDS011;49297;43.210;27.914;2023-09-19T08:44:49;5.38;;;3.97;;
63203;SDS011;49297;43.210;27.914;2023-09-19T08:47:15;3.80;;;3.38;;
63203;SDS011;49297;43.210;27.914;2023-09-19T08:52:42;5.50;;;4.32;;
63203;SDS011;49297;43.210;27.914;2023-09-19T08:55:12;8.25;;;5.90;;
63203;SDS011;49297;43.210;27.914;2023-09-19T08:57:45;4.05;;;3.65;;
63203;SDS011;49297;43.210;27.914;2023-09-19T09:00:14;8.13;;;3.83;;
63203;SDS011;49297;43.210;27.914;2023-09-19T09:02:43;4.70;;;3.60;;
63203;SDS011;49297;43.210;27.914;2023-09-19T09:05:09;3.37;;;3.07;;
63203;SDS011;49297;43.210;27.914;2023-09-19T09:07:42;3.72;;;3.20;;
63203;SDS011;49297;43.210;27.914;2023-09-19T09:10:09;4.28;;;3.38;;
63203;SDS011;49297;43.210;27.914;2023-09-19T09:12:35;4.70;;;3.25;;
63203;SDS011;49297;43.210;27.914;2023-09-19T09:15:06;4.57;;;3.17;;
63203;SDS011;49297;43.210;27.914;2023-09-19T09:17:34;3.53;;;3.00;;
63203;SDS011;49297;43.210;27.914;2023-09-19T09:20:00;4.55;;;3.47;;
63203;SDS011;49297;43.210;27.914;2023-09-19T09:22:25;3.63;;;3.25;;
63203;SDS011;49297;43.210;27.914;2023-09-19T09:24:52;5.82;;;3.83;;
63203;SDS011;49297;43.210;27.914;2023-09-19T09:27:29;3.93;;;3.57;;
63203;SDS011;49297;43.210;27.914;2023-09-19T09:29:56;5.20;;;3.33;;
63203;SDS011;49297;43.210;27.914;2023-09-19T09:32:23;4.18;;;3.50;;
63203;SDS011;49297;43.210;27.914;2023-09-19T09:35:02;3.43;;;2.90;;
63203;SDS011;49297;43.210;27.914;2023-09-19T09:37:35;3.95;;;3.55;;
63203;SDS011;49297;43.210;27.914;2023-09-19T09:40:04;4.30;;;3.60;;
63203;SDS011;49297;43.210;27.914;2023-09-19T09:42:39;4.10;;;3.70;;
63203;SDS011;49297;43.210;27.914;2023-09-19T09:45:16;3.72;;;3.22;;
63203;SDS011;49297;43.210;27.914;2023-09-19T09:47:45;4.93;;;4.05;;
63203;SDS011;49297;43.210;27.914;2023-09-19T09:50:35;4.70;;;4.18;;
63203;SDS011;49297;43.210;27.914;2023-09-19T09:53:22;4.63;;;3.95;;
63203;SDS011;49297;43.210;27.914;2023-09-19T09:58:33;4.05;;;3.55;;
63203;SDS011;49297;43.210;27.914;2023-09-19T10:01:00;4.38;;;3.67;;
63203;SDS011;49297;43.210;27.914;2023-09-19T10:03:40;3.70;;;3.40;;
63203;SDS011;49297;43.210;27.914;2023-09-19T10:06:09;4.43;;;3.50;;
63203;SDS011;49297;43.210;27.914;2023-09-19T10:09:07;6.05;;;4.30;;
63203;SDS011;49297;43.210;27.914;2023-09-19T10:11:49;3.35;;;3.05;;
63203;SDS011;49297;43.210;27.914;2023-09-19T10:14:31;4.63;;;3.15;;
63203;SDS011;49297;43.210;27.914;2023-09-19T10:17:06;4.07;;;3.45;;
63203;SDS011;49297;43.210;27.914;2023-09-19T10:19:56;4.35;;;3.90;;
63203;SDS011;49297;43.210;27.914;2023-09-19T10:22:24;4.03;;;3.53;;
63203;SDS011;49297;43.210;27.914;2023-09-19T10:24:55;4.53;;;3.65;;
63203;SDS011;49297;43.210;27.914;2023-09-19T10:27:22;4.28;;;3.63;;
63203;SDS011;49297;43.210;27.914;2023-09-19T10:29:54;6.40;;;3.85;;
63203;SDS011;49297;43.210;27.914;2023-09-19T10:32:25;3.33;;;2.97;;
63203;SDS011;49297;43.210;27.914;2023-09-19T10:34:53;3.50;;;3.20;;
63203;SDS011;49297;43.210;27.914;2023-09-19T10:37:20;5.03;;;3.95;;
63203;SDS011;49297;43.210;27.914;2023-09-19T10:39:51;8.35;;;4.40;;
63203;SDS011;49297;43.210;27.914;2023-09-19T10:42:19;5.53;;;3.90;;
63203;SDS011;49297;43.210;27.914;2023-09-19T10:44:47;4.03;;;3.17;;
63203;SDS011;49297;43.210;27.914;2023-09-19T10:47:19;6.07;;;3.97;;
63203;SDS011;49297;43.210;27.914;2023-09-19T10:49:45;6.85;;;4.03;;
63203;SDS011;49297;43.210;27.914;2023-09-19T10:52:12;4.25;;;3.30;;
63203;SDS011;49297;43.210;27.914;2023-09-19T10:54:51;4.78;;;4.28;;
63203;SDS011;49297;43.210;27.914;2023-09-19T10:57:22;3.60;;;3.00;;
63203;SDS011;49297;43.210;27.914;2023-09-19T11:00:07;7.25;;;3.83;;
63203;SDS011;49297;43.210;27.914;2023-09-19T11:14:28;3.65;;;3.25;;
63203;SDS011;49297;43.210;27.914;2023-09-19T11:30:40;3.85;;;3.42;;
63203;SDS011;49297;43.210;27.914;2023-09-19T11:33:21;4.28;;;3.75;;
63203;SDS011;49297;43.210;27.914;2023-09-19T11:43:53;8.53;;;3.93;;
63203;SDS011;49297;43.210;27.914;2023-09-19T11:49:18;3.87;;;3.53;;
63203;SDS011;49297;43.210;27.914;2023-09-19T11:51:52;4.20;;;3.40;;
63203;SDS011;49297;43.210;27.914;2023-09-19T11:54:18;4.55;;;4.05;;
63203;SDS011;49297;43.210;27.914;2023-09-19T11:56:50;4.07;;;3.72;;
63203;SDS011;49297;43.210;27.914;2023-09-19T11:59:26;5.28;;;3.40;;
63203;SDS011;49297;43.210;27.914;2023-09-19T12:02:05;4.15;;;3.60;;
63203;SDS011;49297;43.210;27.914;2023-09-19T12:07:04;3.78;;;3.22;;
63203;SDS011;49297;43.210;27.914;2023-09-19T12:09:39;4.63;;;3.13;;
63203;SDS011;49297;43.210;27.914;2023-09-19T12:12:07;4.60;;;3.50;;
63203;SDS011;49297;43.210;27.914;2023-09-19T12:14:34;5.00;;;3.23;;
63203;SDS011;49297;43.210;27.914;2023-09-19T12:17:00;3.38;;;3.08;;
63203;SDS011;49297;43.210;27.914;2023-09-19T12:19:28;3.47;;;3.17;;
63203;SDS011;49297;43.210;27.914;2023-09-19T12:21:55;3.50;;;3.20;;
63203;SDS011;49297;43.210;27.914;2023-09-19T12:24:23;4.53;;;3.20;;
63203;SDS011;49297;43.210;27.914;2023-09-19T12:26:59;3.95;;;3.33;;
63203;SDS011;49297;43.210;27.914;2023-09-19T12:29:29;3.95;;;3.58;;
63203;SDS011;49297;43.210;27.914;2023-09-19T12:31:57;4.43;;;3.67;;
63203;SDS011;49297;43.210;27.914;2023-09-19T12:34:27;4.63;;;4.03;;
63203;SDS011;49297;43.210;27.914;2023-09-19T12:37:04;4.10;;;3.55;;
63203;SDS011;49297;43.210;27.914;2023-09-19T12:39:40;5.10;;;3.15;;
63203;SDS011;49297;43.210;27.914;2023-09-19T12:42:14;4.13;;;3.63;;
63203;SDS011;49297;43.210;27.914;2023-09-19T12:44:59;4.55;;;4.05;;
63203;SDS011;49297;43.210;27.914;2023-09-19T12:47:26;4.15;;;3.75;;
63203;SDS011;49297;43.210;27.914;2023-09-19T12:50:09;3.80;;;3.00;;
63203;SDS011;49297;43.210;27.914;2023-09-19T12:52:59;4.65;;;4.15;;
63203;SDS011;49297;43.210;27.914;2023-09-19T13:03:11;4.82;;;4.32;;
63203;SDS011;49297;43.210;27.914;2023-09-19T13:05:50;4.60;;;3.85;;
63203;SDS011;49297;43.210;27.914;2023-09-19T13:08:21;5.18;;;4.38;;
63203;SDS011;49297;43.210;27.914;2023-09-19T13:11:01;5.72;;;4.03;;
63203;SDS011;49297;43.210;27.914;2023-09-19T13:13:27;6.47;;;4.30;;
63203;SDS011;49297;43.210;27.914;2023-09-19T13:15:53;7.97;;;3.90;;
63203;SDS011;49297;43.210;27.914;2023-09-19T13:18:19;4.20;;;3.70;;
63203;SDS011;49297;43.210;27.914;2023-09-19T13:21:05;4.57;;;3.90;;
63203;SDS011;49297;43.210;27.914;2023-09-19T13:26:48;4.20;;;3.80;;
63203;SDS011;49297;43.210;27.914;2023-09-19T13:29:15;5.30;;;4.13;;
63203;SDS011;49297;43.210;27.914;2023-09-19T13:31:49;8.00;;;3.95;;
63203;SDS011;49297;43.210;27.914;2023-09-19T13:34:18;5.07;;;3.75;;
63203;SDS011;49297;43.210;27.914;2023-09-19T13:36:46;5.82;;;3.67;;
63203;SDS011;49297;43.210;27.914;2023-09-19T13:39:15;4.68;;;4.07;;
63203;SDS011;49297;43.210;27.914;2023-09-19T13:41:41;3.63;;;3.33;;
63203;SDS011;49297;43.210;27.914;2023-09-19T13:44:09;7.30;;;4.35;;
63203;SDS011;49297;43.210;27.914;2023-09-19T13:46:36;4.97;;;4.07;;
63203;SDS011;49297;43.210;27.914;2023-09-19T13:49:02;4.03;;;3.58;;
63203;SDS011;49297;43.210;27.914;2023-09-19T13:51:31;5.97;;;3.92;;
63203;SDS011;49297;43.210;27.914;2023-09-19T13:53:58;4.07;;;3.67;;
63203;SDS011;49297;43.210;27.914;2023-09-19T13:56:25;5.93;;;3.60;;
63203;SDS011;49297;43.210;27.914;2023-09-19T13:58:56;4.13;;;3.53;;
63203;SDS011;49297;43.210;27.914;2023-09-19T14:01:23;4.30;;;3.80;;
63203;SDS011;49297;43.210;27.914;2023-09-19T14:03:49;4.38;;;3.78;;
63203;SDS011;49297;43.210;27.914;2023-09-19T14:06:16;4.93;;;3.78;;
63203;SDS011;49297;43.210;27.914;2023-09-19T14:08:43;4.45;;;3.63;;
63203;SDS011;49297;43.210;27.914;2023-09-19T14:11:13;3.63;;;3.22;;
63203;SDS011;49297;43.210;27.914;2023-09-19T14:13:42;3.63;;;3.33;;
63203;SDS011;49297;43.210;27.914;2023-09-19T14:16:13;4.03;;;3.45;;
63203;SDS011;49297;43.210;27.914;2023-09-19T14:18:41;9.10;;;4.25;;
63203;SDS011;49297;43.210;27.914;2023-09-19T14:21:07;4.37;;;3.27;;
63203;SDS011;49297;43.210;27.914;2023-09-19T14:23:39;10.70;;;3.63;;
63203;SDS011;49297;43.210;27.914;2023-09-19T14:26:06;3.63;;;3.33;;
63203;SDS011;49297;43.210;27.914;2023-09-19T14:28:33;4.00;;;3.70;;
63203;SDS011;49297;43.210;27.914;2023-09-19T14:31:09;5.50;;;3.92;;
63203;SDS011;49297;43.210;27.914;2023-09-19T14:33:36;6.07;;;3.15;;
63203;SDS011;49297;43.210;27.914;2023-09-19T14:36:09;4.03;;;3.67;;
63203;SDS011;49297;43.210;27.914;2023-09-19T14:38:36;4.53;;;3.35;;
63203;SDS011;49297;43.210;27.914;2023-09-19T14:41:03;6.88;;;3.75;;
63203;SDS011;49297;43.210;27.914;2023-09-19T14:43:30;5.20;;;3.90;;
63203;SDS011;49297;43.210;27.914;2023-09-19T14:46:02;4.40;;;3.70;;
63203;SDS011;49297;43.210;27.914;2023-09-19T14:48:35;3.35;;;3.05;;
63203;SDS011;49297;43.210;27.914;2023-09-19T14:51:04;6.53;;;3.72;;
63203;SDS011;49297;43.210;27.914;2023-09-19T14:53:34;6.95;;;4.38;;
63203;SDS011;49297;43.210;27.914;2023-09-19T14:56:04;4.75;;;3.60;;
63203;SDS011;49297;43.210;27.914;2023-09-19T14:58:31;3.80;;;3.40;;
63203;SDS011;49297;43.210;27.914;2023-09-19T15:01:05;3.95;;;3.55;;
63203;SDS011;49297;43.210;27.914;2023-09-19T15:03:32;6.23;;;3.80;;
63203;SDS011;49297;43.210;27.914;2023-09-19T15:06:02;4.38;;;3.97;;
63203;SDS011;49297;43.210;27.914;2023-09-19T15:08:32;3.47;;;3.17;;
63203;SDS011;49297;43.210;27.914;2023-09-19T15:11:03;3.92;;;3.60;;
63203;SDS011;49297;43.210;27.914;2023-09-19T15:13:34;5.70;;;4.03;;
63203;SDS011;49297;43.210;27.914;2023-09-19T15:16:04;4.13;;;3.30;;
63203;SDS011;49297;43.210;27.914;2023-09-19T15:18:34;4.20;;;3.45;;
63203;SDS011;49297;43.210;27.914;2023-09-19T15:21:03;12.25;;;3.40;;
63203;SDS011;49297;43.210;27.914;2023-09-19T15:23:29;3.63;;;3.23;;
63203;SDS011;49297;43.210;27.914;2023-09-19T15:25:57;6.13;;;3.65;;
63203;SDS011;49297;43.210;27.914;2023-09-19T15:28:23;4.80;;;3.65;;
63203;SDS011;49297;43.210;27.914;2023-09-19T15:30:49;3.63;;;3.00;;
63203;SDS011;49297;43.210;27.914;2023-09-19T15:33:15;6.18;;;3.55;;
63203;SDS011;49297;43.210;27.914;2023-09-19T15:35:41;4.57;;;3.30;;
63203;SDS011;49297;43.210;27.914;2023-09-19T15:38:07;5.88;;;3.83;;
63203;SDS011;49297;43.210;27.914;2023-09-19T15:40:33;4.77;;;4.07;;
63203;SDS011;49297;43.210;27.914;2023-09-19T15:43:09;8.13;;;4.50;;
63203;SDS011;49297;43.210;27.914;2023-09-19T15:45:35;4.45;;;3.47;;
63203;SDS011;49297;43.210;27.914;2023-09-19T15:48:01;5.18;;;4.07;;
63203;SDS011;49297;43.210;27.914;2023-09-19T15:50:27;6.47;;;4.13;;
63203;SDS011;49297;43.210;27.914;2023-09-19T15:52:54;4.83;;;3.90;;